sensor_id;sensor_type;location;lat;lon;timestamp;temperature;humidity
24618;DHT22;12762;51.730;5.356;2023-04-10T00:02:23;10.70;58.10
24618;DHT22;12762;51.730;5.356;2023-04-10T00:04:50;10.70;58.20
24618;DHT22;12762;51.730;5.356;2023-04-10T00:07:17;10.70;58.40
24618;DHT22;12762;51.730;5.356;2023-04-10T00:09:44;10.70;58.30
24618;DHT22;12762;51.730;5.356;2023-04-10T00:12:11;10.70;58.30
24618;DHT22;12762;51.730;5.356;2023-04-10T00:14:38;10.60;58.30
24618;DHT22;12762;51.730;5.356;2023-04-10T00:17:07;10.60;59.00
24618;DHT22;12762;51.730;5.356;2023-04-10T00:19:34;10.70;58.50
24618;DHT22;12762;51.730;5.356;2023-04-10T00:22:01;10.60;58.50
24618;DHT22;12762;51.730;5.356;2023-04-10T00:24:28;10.60;58.50
24618;DHT22;12762;51.730;5.356;2023-04-10T00:26:55;10.60;58.60
24618;DHT22;12762;51.730;5.356;2023-04-10T00:29:23;10.60;58.60
24618;DHT22;12762;51.730;5.356;2023-04-10T00:31:52;10.60;58.70
24618;DHT22;12762;51.730;5.356;2023-04-10T00:34:19;10.60;58.80
24618;DHT22;12762;51.730;5.356;2023-04-10T00:36:46;10.60;58.90
24618;DHT22;12762;51.730;5.356;2023-04-10T00:39:16;10.50;58.90
24618;DHT22;12762;51.730;5.356;2023-04-10T00:41:42;10.50;59.00
24618;DHT22;12762;51.730;5.356;2023-04-10T00:44:09;10.50;59.00
24618;DHT22;12762;51.730;5.356;2023-04-10T00:46:39;10.40;59.10
24618;DHT22;12762;51.730;5.356;2023-04-10T00:49:07;10.40;59.10
24618;DHT22;12762;51.730;5.356;2023-04-10T00:51:38;10.40;59.10
24618;DHT22;12762;51.730;5.356;2023-04-10T00:54:05;10.40;59.30
24618;DHT22;12762;51.730;5.356;2023-04-10T00:56:32;10.40;59.20
24618;DHT22;12762;51.730;5.356;2023-04-10T00:58:59;10.40;59.30
24618;DHT22;12762;51.730;5.356;2023-04-10T01:01:26;10.40;59.50
24618;DHT22;12762;51.730;5.356;2023-04-10T01:03:53;10.40;59.40
24618;DHT22;12762;51.730;5.356;2023-04-10T01:11:54;10.40;59.30
24618;DHT22;12762;51.730;5.356;2023-04-10T01:20:16;10.40;59.20
24618;DHT22;12762;51.730;5.356;2023-04-10T01:26:02;10.50;59.20
24618;DHT22;12762;51.730;5.356;2023-04-10T01:31:21;10.50;59.20
24618;DHT22;12762;51.730;5.356;2023-04-10T01:33:53;10.50;59.10
24618;DHT22;12762;51.730;5.356;2023-04-10T01:36:26;10.50;59.10
24618;DHT22;12762;51.730;5.356;2023-04-10T01:38:56;10.50;59.00
24618;DHT22;12762;51.730;5.356;2023-04-10T01:41:25;10.60;59.10
24618;DHT22;12762;51.730;5.356;2023-04-10T01:43:53;10.60;59.00
24618;DHT22;12762;51.730;5.356;2023-04-10T01:46:21;10.60;58.90
24618;DHT22;12762;51.730;5.356;2023-04-10T01:48:49;10.60;58.90
24618;DHT22;12762;51.730;5.356;2023-04-10T01:51:17;10.70;59.00
24618;DHT22;12762;51.730;5.356;2023-04-10T01:53:46;10.70;58.90
24618;DHT22;12762;51.730;5.356;2023-04-10T01:56:13;10.70;59.50
24618;DHT22;12762;51.730;5.356;2023-04-10T01:58:44;10.70;58.80
24618;DHT22;12762;51.730;5.356;2023-04-10T02:01:17;10.70;58.70
24618;DHT22;12762;51.730;5.356;2023-04-10T02:03:57;10.70;58.70
24618;DHT22;12762;51.730;5.356;2023-04-10T02:06:50;10.80;58.70
24618;DHT22;12762;51.730;5.356;2023-04-10T02:09:30;10.80;58.70
24618;DHT22;12762;51.730;5.356;2023-04-10T02:12:05;10.80;58.60
24618;DHT22;12762;51.730;5.356;2023-04-10T02:14:37;10.80;58.60
24618;DHT22;12762;51.730;5.356;2023-04-10T02:17:05;10.80;58.50
24618;DHT22;12762;51.730;5.356;2023-04-10T02:19:34;10.80;58.50
24618;DHT22;12762;51.730;5.356;2023-04-10T02:22:02;10.80;58.50
24618;DHT22;12762;51.730;5.356;2023-04-10T02:24:31;10.80;58.50
24618;DHT22;12762;51.730;5.356;2023-04-10T02:26:59;10.80;58.50
24618;DHT22;12762;51.730;5.356;2023-04-10T02:29:30;10.80;58.50
24618;DHT22;12762;51.730;5.356;2023-04-10T02:32:00;10.80;58.50
24618;DHT22;12762;51.730;5.356;2023-04-10T02:34:28;10.80;58.50
24618;DHT22;12762;51.730;5.356;2023-04-10T02:36:55;10.80;58.50
24618;DHT22;12762;51.730;5.356;2023-04-10T02:39:22;10.80;58.50
24618;DHT22;12762;51.730;5.356;2023-04-10T02:41:49;10.70;58.50
24618;DHT22;12762;51.730;5.356;2023-04-10T02:44:16;10.70;58.50
24618;DHT22;12762;51.730;5.356;2023-04-10T02:46:43;10.70;58.50
24618;DHT22;12762;51.730;5.356;2023-04-10T02:49:09;10.70;58.60
24618;DHT22;12762;51.730;5.356;2023-04-10T02:51:36;10.70;58.60
24618;DHT22;12762;51.730;5.356;2023-04-10T02:54:03;10.60;58.60
24618;DHT22;12762;51.730;5.356;2023-04-10T02:56:32;10.60;58.60
24618;DHT22;12762;51.730;5.356;2023-04-10T02:59:00;10.60;58.70
24618;DHT22;12762;51.730;5.356;2023-04-10T03:01:27;10.60;58.70
24618;DHT22;12762;51.730;5.356;2023-04-10T03:03:54;10.60;58.70
24618;DHT22;12762;51.730;5.356;2023-04-10T03:06:21;10.60;58.80
24618;DHT22;12762;51.730;5.356;2023-04-10T03:08:52;10.50;58.80
24618;DHT22;12762;51.730;5.356;2023-04-10T03:11:19;10.50;58.90
24618;DHT22;12762;51.730;5.356;2023-04-10T03:13:45;10.50;58.90
24618;DHT22;12762;51.730;5.356;2023-04-10T03:16:13;10.40;58.80
24618;DHT22;12762;51.730;5.356;2023-04-10T03:18:51;10.40;58.90
24618;DHT22;12762;51.730;5.356;2023-04-10T03:21:18;10.40;59.00
24618;DHT22;12762;51.730;5.356;2023-04-10T03:23:45;10.30;59.10
24618;DHT22;12762;51.730;5.356;2023-04-10T03:26:12;10.30;59.20
24618;DHT22;12762;51.730;5.356;2023-04-10T03:28:39;10.20;59.20
24618;DHT22;12762;51.730;5.356;2023-04-10T03:31:09;10.20;59.30
24618;DHT22;12762;51.730;5.356;2023-04-10T03:33:38;10.10;59.40
24618;DHT22;12762;51.730;5.356;2023-04-10T03:36:05;10.10;59.50
24618;DHT22;12762;51.730;5.356;2023-04-10T03:38:32;10.00;59.50
24618;DHT22;12762;51.730;5.356;2023-04-10T03:40:59;10.00;60.40
24618;DHT22;12762;51.730;5.356;2023-04-10T03:43:26;9.90;60.70
24618;DHT22;12762;51.730;5.356;2023-04-10T03:45:52;9.80;60.90
24618;DHT22;12762;51.730;5.356;2023-04-10T03:48:19;9.80;61.90
24618;DHT22;12762;51.730;5.356;2023-04-10T03:50:46;9.70;61.10
24618;DHT22;12762;51.730;5.356;2023-04-10T03:53:13;9.70;61.20
24618;DHT22;12762;51.730;5.356;2023-04-10T03:55:42;9.60;61.30
24618;DHT22;12762;51.730;5.356;2023-04-10T03:58:09;9.60;61.40
24618;DHT22;12762;51.730;5.356;2023-04-10T04:00:36;9.50;61.40
24618;DHT22;12762;51.730;5.356;2023-04-10T04:03:11;9.50;61.50
24618;DHT22;12762;51.730;5.356;2023-04-10T04:05:41;9.50;61.70
24618;DHT22;12762;51.730;5.356;2023-04-10T04:08:11;9.40;61.70
24618;DHT22;12762;51.730;5.356;2023-04-10T04:10:39;9.40;61.80
24618;DHT22;12762;51.730;5.356;2023-04-10T04:13:09;9.30;61.70
24618;DHT22;12762;51.730;5.356;2023-04-10T04:15:36;9.30;61.90
24618;DHT22;12762;51.730;5.356;2023-04-10T04:18:03;9.30;61.90
24618;DHT22;12762;51.730;5.356;2023-04-10T04:20:30;9.20;61.90
24618;DHT22;12762;51.730;5.356;2023-04-10T04:22:56;9.20;62.80
24618;DHT22;12762;51.730;5.356;2023-04-10T04:25:23;9.20;62.10
24618;DHT22;12762;51.730;5.356;2023-04-10T04:27:50;9.20;62.20
24618;DHT22;12762;51.730;5.356;2023-04-10T04:30:17;9.20;62.30
24618;DHT22;12762;51.730;5.356;2023-04-10T04:32:43;9.20;62.30
24618;DHT22;12762;51.730;5.356;2023-04-10T04:35:11;9.10;62.40
24618;DHT22;12762;51.730;5.356;2023-04-10T04:37:37;9.10;62.40
24618;DHT22;12762;51.730;5.356;2023-04-10T04:40:05;9.10;62.50
24618;DHT22;12762;51.730;5.356;2023-04-10T04:42:31;9.10;62.60
24618;DHT22;12762;51.730;5.356;2023-04-10T04:44:58;9.10;62.70
24618;DHT22;12762;51.730;5.356;2023-04-10T04:47:25;9.10;62.60
24618;DHT22;12762;51.730;5.356;2023-04-10T04:49:53;9.00;62.70
24618;DHT22;12762;51.730;5.356;2023-04-10T04:52:19;9.00;62.60
24618;DHT22;12762;51.730;5.356;2023-04-10T04:54:49;9.00;62.70
24618;DHT22;12762;51.730;5.356;2023-04-10T04:57:16;9.00;62.90
24618;DHT22;12762;51.730;5.356;2023-04-10T04:59:43;9.00;62.70
24618;DHT22;12762;51.730;5.356;2023-04-10T05:02:10;9.00;62.90
24618;DHT22;12762;51.730;5.356;2023-04-10T05:04:37;9.00;62.90
24618;DHT22;12762;51.730;5.356;2023-04-10T05:07:05;9.00;62.90
24618;DHT22;12762;51.730;5.356;2023-04-10T05:09:32;9.00;62.90
24618;DHT22;12762;51.730;5.356;2023-04-10T05:11:59;9.00;63.00
24618;DHT22;12762;51.730;5.356;2023-04-10T05:14:26;9.00;63.00
24618;DHT22;12762;51.730;5.356;2023-04-10T05:16:53;9.00;63.00
24618;DHT22;12762;51.730;5.356;2023-04-10T05:19:20;9.00;63.00
24618;DHT22;12762;51.730;5.356;2023-04-10T05:21:47;9.00;63.10
24618;DHT22;12762;51.730;5.356;2023-04-10T05:24:13;9.00;63.10
24618;DHT22;12762;51.730;5.356;2023-04-10T05:26:43;9.00;63.10
24618;DHT22;12762;51.730;5.356;2023-04-10T05:29:10;9.00;63.40
24618;DHT22;12762;51.730;5.356;2023-04-10T05:31:37;9.00;63.10
24618;DHT22;12762;51.730;5.356;2023-04-10T05:34:04;9.00;63.20
24618;DHT22;12762;51.730;5.356;2023-04-10T05:36:31;9.10;63.20
24618;DHT22;12762;51.730;5.356;2023-04-10T05:39:01;9.10;64.00
24618;DHT22;12762;51.730;5.356;2023-04-10T05:41:27;9.10;63.10
24618;DHT22;12762;51.730;5.356;2023-04-10T05:43:54;9.10;63.10
24618;DHT22;12762;51.730;5.356;2023-04-10T05:46:21;9.20;63.20
24618;DHT22;12762;51.730;5.356;2023-04-10T05:48:49;9.10;63.10
24618;DHT22;12762;51.730;5.356;2023-04-10T05:51:16;9.20;63.10
24618;DHT22;12762;51.730;5.356;2023-04-10T05:53:43;9.20;63.00
24618;DHT22;12762;51.730;5.356;2023-04-10T05:56:10;9.30;63.10
24618;DHT22;12762;51.730;5.356;2023-04-10T05:58:38;9.30;63.00
24618;DHT22;12762;51.730;5.356;2023-04-10T06:01:05;9.30;62.90
24618;DHT22;12762;51.730;5.356;2023-04-10T06:03:31;9.30;63.00
24618;DHT22;12762;51.730;5.356;2023-04-10T06:05:59;9.40;62.90
24618;DHT22;12762;51.730;5.356;2023-04-10T06:08:28;9.40;62.90
24618;DHT22;12762;51.730;5.356;2023-04-10T06:10:55;9.50;63.00
24618;DHT22;12762;51.730;5.356;2023-04-10T06:13:21;9.50;62.90
24618;DHT22;12762;51.730;5.356;2023-04-10T06:15:49;9.60;62.90
24618;DHT22;12762;51.730;5.356;2023-04-10T06:18:16;9.60;62.80
24618;DHT22;12762;51.730;5.356;2023-04-10T06:20:43;9.70;62.70
24618;DHT22;12762;51.730;5.356;2023-04-10T06:23:12;9.70;62.60
24618;DHT22;12762;51.730;5.356;2023-04-10T06:25:40;9.80;62.60
24618;DHT22;12762;51.730;5.356;2023-04-10T06:28:07;9.90;62.70
24618;DHT22;12762;51.730;5.356;2023-04-10T06:30:34;9.90;62.60
24618;DHT22;12762;51.730;5.356;2023-04-10T06:33:08;10.00;61.40
24618;DHT22;12762;51.730;5.356;2023-04-10T06:35:35;10.00;62.20
24618;DHT22;12762;51.730;5.356;2023-04-10T06:38:03;10.10;61.30
24618;DHT22;12762;51.730;5.356;2023-04-10T06:40:30;10.10;61.10
24618;DHT22;12762;51.730;5.356;2023-04-10T06:42:59;10.20;61.10
24618;DHT22;12762;51.730;5.356;2023-04-10T06:45:27;10.20;61.00
24618;DHT22;12762;51.730;5.356;2023-04-10T06:47:54;10.30;61.00
24618;DHT22;12762;51.730;5.356;2023-04-10T06:50:21;10.30;61.00
24618;DHT22;12762;51.730;5.356;2023-04-10T06:52:48;10.40;60.90
24618;DHT22;12762;51.730;5.356;2023-04-10T06:55:15;10.40;60.80
24618;DHT22;12762;51.730;5.356;2023-04-10T06:57:42;10.50;61.70
24618;DHT22;12762;51.730;5.356;2023-04-10T07:00:09;10.50;60.70
24618;DHT22;12762;51.730;5.356;2023-04-10T07:02:39;10.60;60.70
24618;DHT22;12762;51.730;5.356;2023-04-10T07:05:06;10.60;60.60
24618;DHT22;12762;51.730;5.356;2023-04-10T07:07:33;10.60;60.50
24618;DHT22;12762;51.730;5.356;2023-04-10T07:10:00;10.70;60.60
24618;DHT22;12762;51.730;5.356;2023-04-10T07:12:28;10.70;60.40
24618;DHT22;12762;51.730;5.356;2023-04-10T07:14:55;10.80;60.50
24618;DHT22;12762;51.730;5.356;2023-04-10T07:17:21;10.80;60.40
24618;DHT22;12762;51.730;5.356;2023-04-10T07:19:48;10.90;60.50
24618;DHT22;12762;51.730;5.356;2023-04-10T07:22:15;11.00;60.40
24618;DHT22;12762;51.730;5.356;2023-04-10T07:24:42;11.00;60.40
24618;DHT22;12762;51.730;5.356;2023-04-10T07:27:09;11.10;60.30
24618;DHT22;12762;51.730;5.356;2023-04-10T07:29:37;11.20;60.20
24618;DHT22;12762;51.730;5.356;2023-04-10T07:32:04;11.30;60.10
24618;DHT22;12762;51.730;5.356;2023-04-10T07:34:33;11.40;60.00
24618;DHT22;12762;51.730;5.356;2023-04-10T07:37:00;11.50;59.90
24618;DHT22;12762;51.730;5.356;2023-04-10T07:39:27;11.70;59.80
24618;DHT22;12762;51.730;5.356;2023-04-10T07:41:54;11.80;59.70
24618;DHT22;12762;51.730;5.356;2023-04-10T07:44:20;12.00;59.60
24618;DHT22;12762;51.730;5.356;2023-04-10T07:46:48;12.20;59.50
24618;DHT22;12762;51.730;5.356;2023-04-10T07:49:14;12.40;59.20
24618;DHT22;12762;51.730;5.356;2023-04-10T07:51:41;12.60;59.00
24618;DHT22;12762;51.730;5.356;2023-04-10T07:54:08;12.80;58.70
24618;DHT22;12762;51.730;5.356;2023-04-10T07:56:35;13.00;58.60
24618;DHT22;12762;51.730;5.356;2023-04-10T07:59:02;13.30;58.30
24618;DHT22;12762;51.730;5.356;2023-04-10T08:01:35;13.50;58.10
24618;DHT22;12762;51.730;5.356;2023-04-10T08:04:02;13.70;57.50
24618;DHT22;12762;51.730;5.356;2023-04-10T08:06:31;13.90;57.40
24618;DHT22;12762;51.730;5.356;2023-04-10T08:08:59;14.10;57.40
24618;DHT22;12762;51.730;5.356;2023-04-10T08:11:29;14.10;57.00
24618;DHT22;12762;51.730;5.356;2023-04-10T08:13:57;14.10;56.70
24618;DHT22;12762;51.730;5.356;2023-04-10T08:16:29;14.00;56.70
24618;DHT22;12762;51.730;5.356;2023-04-10T08:18:57;14.00;56.60
24618;DHT22;12762;51.730;5.356;2023-04-10T08:21:26;13.90;56.70
24618;DHT22;12762;51.730;5.356;2023-04-10T08:23:58;13.80;56.80
24618;DHT22;12762;51.730;5.356;2023-04-10T08:26:26;13.70;57.00
24618;DHT22;12762;51.730;5.356;2023-04-10T08:28:55;13.80;57.10
24618;DHT22;12762;51.730;5.356;2023-04-10T08:31:24;13.80;57.10
24618;DHT22;12762;51.730;5.356;2023-04-10T08:33:51;13.90;57.80
24618;DHT22;12762;51.730;5.356;2023-04-10T08:36:19;13.90;57.10
24618;DHT22;12762;51.730;5.356;2023-04-10T08:38:46;14.00;57.20
24618;DHT22;12762;51.730;5.356;2023-04-10T08:41:15;14.20;57.20
24618;DHT22;12762;51.730;5.356;2023-04-10T08:43:42;14.20;57.00
24618;DHT22;12762;51.730;5.356;2023-04-10T08:46:14;14.30;56.60
24618;DHT22;12762;51.730;5.356;2023-04-10T08:49:02;14.30;56.50
24618;DHT22;12762;51.730;5.356;2023-04-10T08:51:56;14.20;56.50
24618;DHT22;12762;51.730;5.356;2023-04-10T08:54:33;14.20;56.60
24618;DHT22;12762;51.730;5.356;2023-04-10T08:57:01;14.20;56.60
24618;DHT22;12762;51.730;5.356;2023-04-10T08:59:29;14.20;56.80
24618;DHT22;12762;51.730;5.356;2023-04-10T09:01:57;14.20;56.60
24618;DHT22;12762;51.730;5.356;2023-04-10T09:04:25;14.20;56.70
24618;DHT22;12762;51.730;5.356;2023-04-10T09:06:52;14.20;56.50
24618;DHT22;12762;51.730;5.356;2023-04-10T09:09:19;14.20;56.60
24618;DHT22;12762;51.730;5.356;2023-04-10T09:14:27;14.20;56.50
24618;DHT22;12762;51.730;5.356;2023-04-10T09:19:39;14.20;56.60
24618;DHT22;12762;51.730;5.356;2023-04-10T09:22:06;14.30;56.80
24618;DHT22;12762;51.730;5.356;2023-04-10T09:24:45;14.30;56.70
24618;DHT22;12762;51.730;5.356;2023-04-10T09:27:33;14.40;56.60
24618;DHT22;12762;51.730;5.356;2023-04-10T09:30:06;14.40;56.60
24618;DHT22;12762;51.730;5.356;2023-04-10T09:32:41;14.50;56.60
24618;DHT22;12762;51.730;5.356;2023-04-10T09:35:19;14.50;56.70
24618;DHT22;12762;51.730;5.356;2023-04-10T09:37:46;14.60;56.60
24618;DHT22;12762;51.730;5.356;2023-04-10T09:40:23;14.60;56.60
24618;DHT22;12762;51.730;5.356;2023-04-10T09:42:51;14.70;56.70
24618;DHT22;12762;51.730;5.356;2023-04-10T09:45:18;14.80;56.60
24618;DHT22;12762;51.730;5.356;2023-04-10T09:48:06;14.80;56.50
24618;DHT22;12762;51.730;5.356;2023-04-10T09:50:34;14.80;56.00
24618;DHT22;12762;51.730;5.356;2023-04-10T09:53:15;14.80;56.50
24618;DHT22;12762;51.730;5.356;2023-04-10T09:55:46;14.80;56.50
24618;DHT22;12762;51.730;5.356;2023-04-10T09:58:14;14.90;56.60
24618;DHT22;12762;51.730;5.356;2023-04-10T10:00:43;15.00;56.40
24618;DHT22;12762;51.730;5.356;2023-04-10T10:03:14;15.10;56.40
24618;DHT22;12762;51.730;5.356;2023-04-10T10:05:43;15.10;56.30
24618;DHT22;12762;51.730;5.356;2023-04-10T10:08:11;15.30;56.40
24618;DHT22;12762;51.730;5.356;2023-04-10T10:10:46;15.40;56.40
24618;DHT22;12762;51.730;5.356;2023-04-10T10:13:42;15.40;56.00
24618;DHT22;12762;51.730;5.356;2023-04-10T10:16:20;15.50;56.10
24618;DHT22;12762;51.730;5.356;2023-04-10T10:18:54;15.50;55.80
24618;DHT22;12762;51.730;5.356;2023-04-10T10:21:25;15.60;56.00
24618;DHT22;12762;51.730;5.356;2023-04-10T10:23:56;15.70;55.90
24618;DHT22;12762;51.730;5.356;2023-04-10T10:26:24;15.80;55.70
24618;DHT22;12762;51.730;5.356;2023-04-10T10:28:52;15.90;55.80
24618;DHT22;12762;51.730;5.356;2023-04-10T10:31:21;15.90;55.60
24618;DHT22;12762;51.730;5.356;2023-04-10T10:33:53;16.00;55.70
24618;DHT22;12762;51.730;5.356;2023-04-10T10:36:21;16.20;55.40
24618;DHT22;12762;51.730;5.356;2023-04-10T10:44:53;16.50;55.50
24618;DHT22;12762;51.730;5.356;2023-04-10T10:47:29;16.60;55.50
24618;DHT22;12762;51.730;5.356;2023-04-10T10:50:02;16.70;55.60
24618;DHT22;12762;51.730;5.356;2023-04-10T11:00:15;17.00;55.00
24618;DHT22;12762;51.730;5.356;2023-04-10T11:02:42;17.20;54.90
24618;DHT22;12762;51.730;5.356;2023-04-10T11:11:13;17.50;54.10
24618;DHT22;12762;51.730;5.356;2023-04-10T11:16:18;17.60;53.70
24618;DHT22;12762;51.730;5.356;2023-04-10T11:21:34;17.70;53.80
24618;DHT22;12762;51.730;5.356;2023-04-10T11:24:02;17.80;53.80
24618;DHT22;12762;51.730;5.356;2023-04-10T11:31:54;18.10;53.50
24618;DHT22;12762;51.730;5.356;2023-04-10T11:34:22;18.20;53.30
24618;DHT22;12762;51.730;5.356;2023-04-10T11:36:49;18.30;52.80
24618;DHT22;12762;51.730;5.356;2023-04-10T11:39:19;18.40;53.10
24618;DHT22;12762;51.730;5.356;2023-04-10T11:41:49;18.40;52.70
24618;DHT22;12762;51.730;5.356;2023-04-10T11:44:18;18.40;52.00
24618;DHT22;12762;51.730;5.356;2023-04-10T11:46:54;18.40;52.30
24618;DHT22;12762;51.730;5.356;2023-04-10T11:49:26;18.30;52.10
24618;DHT22;12762;51.730;5.356;2023-04-10T11:51:53;18.40;52.40
24618;DHT22;12762;51.730;5.356;2023-04-10T11:54:22;18.40;52.40
24618;DHT22;12762;51.730;5.356;2023-04-10T11:59:31;18.50;52.20
24618;DHT22;12762;51.730;5.356;2023-04-10T12:02:13;18.50;52.30
24618;DHT22;12762;51.730;5.356;2023-04-10T12:04:44;18.50;52.20
24618;DHT22;12762;51.730;5.356;2023-04-10T12:07:17;18.60;52.30
24618;DHT22;12762;51.730;5.356;2023-04-10T12:09:44;18.70;52.30
24618;DHT22;12762;51.730;5.356;2023-04-10T12:12:11;18.90;52.00
24618;DHT22;12762;51.730;5.356;2023-04-10T12:14:41;19.10;52.40
24618;DHT22;12762;51.730;5.356;2023-04-10T12:17:09;19.20;51.20
24618;DHT22;12762;51.730;5.356;2023-04-10T12:19:39;19.20;50.90
24618;DHT22;12762;51.730;5.356;2023-04-10T12:22:07;19.10;51.40
24618;DHT22;12762;51.730;5.356;2023-04-10T12:24:40;19.10;51.50
24618;DHT22;12762;51.730;5.356;2023-04-10T12:27:14;18.90;51.40
24618;DHT22;12762;51.730;5.356;2023-04-10T12:29:43;18.80;51.20
24618;DHT22;12762;51.730;5.356;2023-04-10T12:32:09;18.70;51.30
24618;DHT22;12762;51.730;5.356;2023-04-10T12:34:36;18.60;51.30
24618;DHT22;12762;51.730;5.356;2023-04-10T12:37:04;18.50;51.30
24618;DHT22;12762;51.730;5.356;2023-04-10T12:39:31;18.40;51.40
24618;DHT22;12762;51.730;5.356;2023-04-10T12:44:56;18.30;51.10
24618;DHT22;12762;51.730;5.356;2023-04-10T12:47:26;18.20;51.70
24618;DHT22;12762;51.730;5.356;2023-04-10T12:50:13;18.10;51.70
24618;DHT22;12762;51.730;5.356;2023-04-10T12:52:45;18.10;51.70
24618;DHT22;12762;51.730;5.356;2023-04-10T12:55:13;18.00;51.80
24618;DHT22;12762;51.730;5.356;2023-04-10T12:57:42;17.90;51.90
24618;DHT22;12762;51.730;5.356;2023-04-10T13:00:14;17.90;52.30
24618;DHT22;12762;51.730;5.356;2023-04-10T13:02:42;17.90;52.40
24618;DHT22;12762;51.730;5.356;2023-04-10T13:05:10;17.80;52.20
24618;DHT22;12762;51.730;5.356;2023-04-10T13:07:40;17.80;52.40
24618;DHT22;12762;51.730;5.356;2023-04-10T13:10:07;17.80;52.60
24618;DHT22;12762;51.730;5.356;2023-04-10T13:12:34;17.80;52.70
24618;DHT22;12762;51.730;5.356;2023-04-10T13:15:02;17.70;52.10
24618;DHT22;12762;51.730;5.356;2023-04-10T13:17:29;17.70;52.30
24618;DHT22;12762;51.730;5.356;2023-04-10T13:19:56;17.70;52.30
24618;DHT22;12762;51.730;5.356;2023-04-10T13:22:22;17.70;52.30
24618;DHT22;12762;51.730;5.356;2023-04-10T13:24:52;17.70;52.40
24618;DHT22;12762;51.730;5.356;2023-04-10T13:27:19;17.60;52.30
24618;DHT22;12762;51.730;5.356;2023-04-10T13:29:46;17.60;52.40
24618;DHT22;12762;51.730;5.356;2023-04-10T13:32:13;17.50;52.10
24618;DHT22;12762;51.730;5.356;2023-04-10T13:34:39;17.50;52.30
24618;DHT22;12762;51.730;5.356;2023-04-10T13:37:07;17.50;52.40
24618;DHT22;12762;51.730;5.356;2023-04-10T13:39:34;17.50;52.40
24618;DHT22;12762;51.730;5.356;2023-04-10T13:42:01;17.50;52.40
24618;DHT22;12762;51.730;5.356;2023-04-10T13:44:28;17.50;52.30
24618;DHT22;12762;51.730;5.356;2023-04-10T13:46:55;17.60;52.60
24618;DHT22;12762;51.730;5.356;2023-04-10T13:49:23;17.60;52.60
24618;DHT22;12762;51.730;5.356;2023-04-10T13:51:50;17.70;53.30
24618;DHT22;12762;51.730;5.356;2023-04-10T13:54:17;17.80;52.80
24618;DHT22;12762;51.730;5.356;2023-04-10T13:56:44;17.80;52.80
24618;DHT22;12762;51.730;5.356;2023-04-10T13:59:12;17.80;52.80
24618;DHT22;12762;51.730;5.356;2023-04-10T14:01:39;17.80;52.90
24618;DHT22;12762;51.730;5.356;2023-04-10T14:04:06;17.80;52.80
24618;DHT22;12762;51.730;5.356;2023-04-10T14:06:33;17.80;53.00
24618;DHT22;12762;51.730;5.356;2023-04-10T14:09:00;17.70;53.20
24618;DHT22;12762;51.730;5.356;2023-04-10T14:11:27;17.60;54.20
24618;DHT22;12762;51.730;5.356;2023-04-10T14:14:00;17.60;53.80
24618;DHT22;12762;51.730;5.356;2023-04-10T14:16:27;17.50;54.10
24618;DHT22;12762;51.730;5.356;2023-04-10T14:18:54;17.40;54.40
24618;DHT22;12762;51.730;5.356;2023-04-10T14:21:21;17.30;54.90
24618;DHT22;12762;51.730;5.356;2023-04-10T14:23:48;17.10;55.00
24618;DHT22;12762;51.730;5.356;2023-04-10T14:26:15;17.00;55.30
24618;DHT22;12762;51.730;5.356;2023-04-10T14:28:41;16.80;55.70
24618;DHT22;12762;51.730;5.356;2023-04-10T14:31:08;16.70;55.90
24618;DHT22;12762;51.730;5.356;2023-04-10T14:33:38;16.60;56.20
24618;DHT22;12762;51.730;5.356;2023-04-10T14:36:05;16.50;57.30
24618;DHT22;12762;51.730;5.356;2023-04-10T14:38:32;16.40;56.90
24618;DHT22;12762;51.730;5.356;2023-04-10T14:40:59;16.30;57.30
24618;DHT22;12762;51.730;5.356;2023-04-10T14:43:26;16.30;57.40
24618;DHT22;12762;51.730;5.356;2023-04-10T14:45:53;16.20;57.70
24618;DHT22;12762;51.730;5.356;2023-04-10T14:48:20;16.20;58.00
24618;DHT22;12762;51.730;5.356;2023-04-10T14:50:47;16.20;58.40
24618;DHT22;12762;51.730;5.356;2023-04-10T14:53:15;16.10;58.40
24618;DHT22;12762;51.730;5.356;2023-04-10T14:55:42;16.10;58.40
24618;DHT22;12762;51.730;5.356;2023-04-10T14:58:09;16.00;58.50
24618;DHT22;12762;51.730;5.356;2023-04-10T15:00:36;16.00;58.90
24618;DHT22;12762;51.730;5.356;2023-04-10T15:03:03;16.00;58.80
24618;DHT22;12762;51.730;5.356;2023-04-10T15:05:32;15.90;59.00
24618;DHT22;12762;51.730;5.356;2023-04-10T15:07:59;15.90;59.20
24618;DHT22;12762;51.730;5.356;2023-04-10T15:10:30;15.80;59.50
24618;DHT22;12762;51.730;5.356;2023-04-10T15:12:57;15.70;60.00
24618;DHT22;12762;51.730;5.356;2023-04-10T15:15:23;15.70;60.20
24618;DHT22;12762;51.730;5.356;2023-04-10T15:17:50;15.60;60.40
24618;DHT22;12762;51.730;5.356;2023-04-10T15:20:17;15.50;60.90
24618;DHT22;12762;51.730;5.356;2023-04-10T15:22:44;15.40;60.90
24618;DHT22;12762;51.730;5.356;2023-04-10T15:25:13;15.40;61.00
24618;DHT22;12762;51.730;5.356;2023-04-10T15:27:40;15.40;61.10
24618;DHT22;12762;51.730;5.356;2023-04-10T15:30:07;15.40;61.20
24618;DHT22;12762;51.730;5.356;2023-04-10T15:32:36;15.40;61.20
24618;DHT22;12762;51.730;5.356;2023-04-10T15:35:04;15.40;61.20
24618;DHT22;12762;51.730;5.356;2023-04-10T15:37:33;15.40;61.20
24618;DHT22;12762;51.730;5.356;2023-04-10T15:40:00;15.40;61.50
24618;DHT22;12762;51.730;5.356;2023-04-10T15:42:35;15.40;61.60
24618;DHT22;12762;51.730;5.356;2023-04-10T15:45:02;15.50;61.80
24618;DHT22;12762;51.730;5.356;2023-04-10T15:47:29;15.50;61.70
24618;DHT22;12762;51.730;5.356;2023-04-10T15:49:56;15.50;61.60
24618;DHT22;12762;51.730;5.356;2023-04-10T15:52:26;15.50;61.60
24618;DHT22;12762;51.730;5.356;2023-04-10T15:54:56;15.50;61.60
24618;DHT22;12762;51.730;5.356;2023-04-10T15:57:22;15.40;61.70
24618;DHT22;12762;51.730;5.356;2023-04-10T15:59:52;15.40;61.80
24618;DHT22;12762;51.730;5.356;2023-04-10T16:02:21;15.40;61.90
24618;DHT22;12762;51.730;5.356;2023-04-10T16:04:48;15.30;62.70
24618;DHT22;12762;51.730;5.356;2023-04-10T16:07:18;15.30;62.10
24618;DHT22;12762;51.730;5.356;2023-04-10T16:09:46;15.20;62.10
24618;DHT22;12762;51.730;5.356;2023-04-10T16:12:13;15.20;62.20
24618;DHT22;12762;51.730;5.356;2023-04-10T16:14:40;15.20;62.30
24618;DHT22;12762;51.730;5.356;2023-04-10T16:17:07;15.20;62.50
24618;DHT22;12762;51.730;5.356;2023-04-10T16:19:33;15.20;62.70
24618;DHT22;12762;51.730;5.356;2023-04-10T16:22:00;15.10;62.90
24618;DHT22;12762;51.730;5.356;2023-04-10T16:24:27;15.10;63.40
24618;DHT22;12762;51.730;5.356;2023-04-10T16:26:54;15.10;63.60
24618;DHT22;12762;51.730;5.356;2023-04-10T16:29:21;15.00;63.80
24618;DHT22;12762;51.730;5.356;2023-04-10T16:31:51;14.90;64.00
24618;DHT22;12762;51.730;5.356;2023-04-10T16:34:18;14.90;64.40
24618;DHT22;12762;51.730;5.356;2023-04-10T16:36:45;14.80;64.60
24618;DHT22;12762;51.730;5.356;2023-04-10T16:39:12;14.80;65.00
24618;DHT22;12762;51.730;5.356;2023-04-10T16:41:38;14.70;65.30